createdAt,value
2023-11-27T00:00:25.712Z,100077.03
2023-11-27T00:01:09.865Z,100076.16
2023-11-27T00:01:44.885Z,100080.50
2023-11-27T00:02:18.481Z,100073.59
2023-11-27T00:02:55.294Z,100070.16
2023-11-27T00:03:32.228Z,100075.34
2023-11-27T00:04:05.932Z,100076.25
2023-11-27T00:04:39.414Z,100077.09
2023-11-27T00:05:13.544Z,100081.44
2023-11-27T00:05:48.018Z,100076.25
2023-11-27T00:06:21.482Z,100071.94
2023-11-27T00:06:55.104Z,100077.13
2023-11-27T00:07:28.678Z,100077.16
2023-11-27T00:08:02.385Z,100077.16
2023-11-27T00:08:36.250Z,100073.72
2023-11-27T00:09:10.611Z,100084.94
2023-11-27T00:09:45.192Z,100084.97
2023-11-27T00:10:18.811Z,100082.38
2023-11-27T00:10:52.419Z,100073.72
2023-11-27T00:11:25.746Z,100080.66
2023-11-27T00:12:03.487Z,100080.66
2023-11-27T00:12:37.782Z,100072.00
2023-11-27T00:13:11.938Z,100084.13
2023-11-27T00:13:45.346Z,100078.06
2023-11-27T00:14:19.061Z,100079.78
2023-11-27T00:14:55.616Z,100087.59
2023-11-27T00:15:29.471Z,100084.13
2023-11-27T00:16:03.404Z,100087.59
2023-11-27T00:16:37.131Z,100091.06
2023-11-27T00:17:10.736Z,100087.63
2023-11-27T00:17:45.778Z,100090.22
2023-11-27T00:18:20.106Z,100087.59
2023-11-27T00:18:54.124Z,100091.09
2023-11-27T00:19:27.888Z,100091.09
2023-11-27T00:20:01.431Z,100092.81
2023-11-27T00:20:35.352Z,100088.47
2023-11-27T00:21:09.190Z,100087.59
2023-11-27T00:21:43.874Z,100089.34
2023-11-27T00:22:17.499Z,100085.88
2023-11-27T00:22:51.073Z,100094.56
2023-11-27T00:23:24.648Z,100088.50
2023-11-27T00:24:00.450Z,100088.47
2023-11-27T00:24:36.136Z,100085.88
2023-11-27T00:25:09.815Z,100092.81
2023-11-27T00:25:43.331Z,100090.22
2023-11-27T00:26:17.368Z,100091.06
2023-11-27T00:27:00.618Z,100082.44
2023-11-27T00:27:34.337Z,100087.63
2023-11-27T00:28:09.113Z,100091.09
2023-11-27T00:28:43.278Z,100081.59
2023-11-27T00:29:16.654Z,100082.44
2023-11-27T00:29:50.456Z,100078.13
2023-11-27T00:30:23.822Z,100079.84
2023-11-27T00:30:57.097Z,100079.00
2023-11-27T00:31:31.133Z,100072.91
2023-11-27T00:32:05.145Z,100080.69
2023-11-27T00:32:38.828Z,100076.41
2023-11-27T00:33:13.573Z,100073.81
2023-11-27T00:33:47.047Z,100072.09
2023-11-27T00:34:20.722Z,100079.00
2023-11-27T00:34:54.128Z,100074.69
2023-11-27T00:35:27.898Z,100074.69
2023-11-27T00:36:01.356Z,100077.28
2023-11-27T00:36:34.656Z,100078.13
2023-11-27T00:37:08.395Z,100074.69
2023-11-27T00:37:44.390Z,100077.28
2023-11-27T00:38:17.953Z,100067.75
2023-11-27T00:38:51.528Z,100080.75
2023-11-27T00:39:25.668Z,100072.09
2023-11-27T00:39:59.261Z,100075.53
2023-11-27T00:40:32.621Z,100077.25
2023-11-27T00:41:07.635Z,100077.25
2023-11-27T00:41:41.174Z,100074.66
2023-11-27T00:42:15.899Z,100079.84
2023-11-27T00:42:49.713Z,100075.53
2023-11-27T00:43:23.946Z,100083.31
2023-11-27T00:43:57.698Z,100079.84
2023-11-27T00:44:32.274Z,100078.97
2023-11-27T00:45:07.641Z,100078.97
2023-11-27T00:45:41.485Z,100080.69
2023-11-27T00:46:15.502Z,100072.06
2023-11-27T00:46:48.927Z,100078.97
2023-11-27T00:47:22.521Z,100073.78
2023-11-27T00:47:57.276Z,100075.50
2023-11-27T00:48:30.912Z,100074.63
2023-11-27T00:49:04.511Z,100075.50
2023-11-27T00:49:37.821Z,100072.06
2023-11-27T00:50:14.064Z,100080.69
2023-11-27T00:50:48.923Z,100075.50
2023-11-27T00:51:25.425Z,100077.22
2023-11-27T00:51:59.147Z,100071.16
2023-11-27T00:52:33.804Z,100066.84
2023-11-27T00:53:07.309Z,100069.44
2023-11-27T00:53:43.223Z,100067.72
2023-11-27T00:54:16.548Z,100075.50
2023-11-27T00:54:49.898Z,100070.31
2023-11-27T00:55:23.732Z,100072.06
2023-11-27T00:55:58.178Z,100072.94
2023-11-27T00:56:31.693Z,100073.81
2023-11-27T00:57:05.468Z,100072.06
2023-11-27T00:57:39.053Z,100068.63
2023-11-27T00:58:13.852Z,100072.06
2023-11-27T00:58:47.316Z,100071.22
2023-11-27T00:59:20.875Z,100079.00
2023-11-27T00:59:54.214Z,100072.06
2023-11-27T01:01:43.294Z,100072.94
2023-11-27T01:02:20.271Z,100069.47
2023-11-27T01:02:54.923Z,100072.06
2023-11-27T01:03:28.881Z,100063.41
2023-11-27T01:04:02.378Z,100061.66
2023-11-27T01:04:39.910Z,100062.56
2023-11-27T01:05:15.490Z,100062.53
2023-11-27T01:05:49.652Z,100067.75
2023-11-27T01:06:23.256Z,100068.63
2023-11-27T01:06:56.781Z,100065.13
2023-11-27T01:07:31.288Z,100068.59
2023-11-27T01:08:05.840Z,100065.16
2023-11-27T01:08:40.687Z,100070.34
2023-11-27T01:09:15.900Z,100065.16
2023-11-27T01:09:52.539Z,100067.75
2023-11-27T01:10:27.377Z,100064.28
2023-11-27T01:11:00.976Z,100068.63
2023-11-27T01:11:34.485Z,100061.69
2023-11-27T01:12:08.380Z,100062.56
2023-11-27T01:12:44.683Z,100061.69
2023-11-27T01:13:19.517Z,100059.09
2023-11-27T01:13:56.176Z,100061.69
2023-11-27T01:14:29.848Z,100058.25
2023-11-27T01:15:04.189Z,100057.38
2023-11-27T01:15:37.565Z,100059.13
2023-11-27T01:16:12.104Z,100060.84
2023-11-27T01:16:45.722Z,100056.53
2023-11-27T01:17:19.017Z,100060.00
2023-11-27T01:17:52.600Z,100059.13
2023-11-27T01:18:26.162Z,100058.28
2023-11-27T01:18:59.527Z,100058.28
2023-11-27T01:19:34.061Z,100058.28
2023-11-27T01:20:09.521Z,100058.28
2023-11-27T01:20:43.597Z,100063.47
2023-11-27T01:21:17.742Z,100063.47
2023-11-27T01:21:53.605Z,100060.84
2023-11-27T01:22:26.862Z,100068.66
2023-11-27T01:23:00.785Z,100060.88
2023-11-27T01:23:35.138Z,100065.19
2023-11-27T01:24:09.561Z,100066.03
2023-11-27T01:24:43.113Z,100066.91
2023-11-27T01:25:17.348Z,100062.59
2023-11-27T01:25:51.349Z,100061.72
2023-11-27T01:26:25.420Z,100060.00
2023-11-27T01:26:58.943Z,100061.72
2023-11-27T01:27:33.342Z,100061.72
2023-11-27T01:28:07.107Z,100059.97
2023-11-27T01:28:40.502Z,100053.06
2023-11-27T01:29:14.104Z,100056.53
2023-11-27T01:29:47.638Z,100053.94
2023-11-27T01:30:24.231Z,100057.38
2023-11-27T01:30:58.007Z,100059.97
2023-11-27T01:31:31.579Z,100053.06
2023-11-27T01:32:05.470Z,100059.97
2023-11-27T01:32:38.918Z,100061.72
2023-11-27T01:33:13.593Z,100051.34
2023-11-27T01:33:47.219Z,100056.53
2023-11-27T01:34:20.852Z,100058.22
2023-11-27T01:34:55.118Z,100056.50
2023-11-27T01:35:28.389Z,100054.78
2023-11-27T01:36:02.540Z,100054.75
2023-11-27T01:36:36.115Z,100050.44
2023-11-27T01:37:09.976Z,100053.03
2023-11-27T01:37:43.361Z,100054.75
2023-11-27T01:38:16.879Z,100055.66
2023-11-27T01:38:50.161Z,100052.16
2023-11-27T01:39:24.148Z,100056.47
2023-11-27T01:39:58.293Z,100053.03
2023-11-27T01:40:31.774Z,100049.56
2023-11-27T01:41:05.518Z,100061.66
2023-11-27T01:41:40.052Z,100052.16
2023-11-27T01:42:14.410Z,100056.47
2023-11-27T01:42:50.512Z,100055.63
2023-11-27T01:43:24.177Z,100047.81
2023-11-27T01:43:57.918Z,100040.03
2023-11-27T01:44:31.493Z,100047.78
2023-11-27T01:45:09.781Z,100046.06
2023-11-27T01:45:43.465Z,100044.34
2023-11-27T01:46:28.899Z,100044.34
2023-11-27T01:47:03.080Z,100044.34
2023-11-27T01:47:36.565Z,100041.75
2023-11-27T01:48:12.701Z,100040.03
2023-11-27T01:48:46.466Z,100043.47
2023-11-27T01:49:21.414Z,100040.91
2023-11-27T01:49:55.521Z,100040.88
2023-11-27T01:50:29.388Z,100035.66
2023-11-27T01:51:02.890Z,100032.22
2023-11-27T01:51:36.298Z,100035.66
2023-11-27T01:52:12.213Z,100035.66
2023-11-27T01:52:46.083Z,100033.91
2023-11-27T01:53:19.624Z,100042.59
2023-11-27T01:53:57.443Z,100039.09
2023-11-27T01:54:38.175Z,100031.31
2023-11-27T01:55:13.860Z,100037.38
2023-11-27T01:55:47.845Z,100035.63
2023-11-27T01:56:23.038Z,100040.84
2023-11-27T01:56:58.351Z,100034.78
2023-11-27T01:57:32.467Z,100034.78
2023-11-27T01:58:05.992Z,100028.72
2023-11-27T01:58:43.137Z,100032.19
2023-11-27T01:59:17.915Z,100035.63
2023-11-27T01:59:54.942Z,100035.63
2023-11-27T02:00:29.462Z,100028.72
2023-11-27T02:01:04.367Z,100035.66
2023-11-27T02:01:39.483Z,100027.00
2023-11-27T02:02:17.543Z,100025.28
2023-11-27T02:02:51.664Z,100025.28
2023-11-27T02:03:25.343Z,100026.09
2023-11-27T02:03:58.775Z,100027.00
2023-11-27T02:04:33.623Z,100026.09
2023-11-27T02:05:09.253Z,100025.25
2023-11-27T02:05:43.096Z,100017.47
2023-11-27T02:06:16.797Z,100023.50
2023-11-27T02:06:52.313Z,100021.81
2023-11-27T02:07:25.985Z,100025.25
2023-11-27T02:07:59.826Z,100015.72
2023-11-27T02:08:33.503Z,100021.78
2023-11-27T02:09:09.306Z,100020.91
2023-11-27T02:09:43.201Z,100019.16
2023-11-27T02:10:16.953Z,100025.25
2023-11-27T02:10:50.527Z,100014.84
2023-11-27T02:11:26.717Z,100015.69
2023-11-27T02:12:00.185Z,100016.59
2023-11-27T02:12:33.770Z,100021.81
2023-11-27T02:13:07.347Z,100024.38
2023-11-27T02:13:40.952Z,100022.63
2023-11-27T02:14:16.818Z,100020.00
2023-11-27T02:14:51.715Z,100018.28
2023-11-27T02:15:25.432Z,100018.28
2023-11-27T02:15:59.230Z,100018.28
2023-11-27T02:16:32.660Z,100013.97
2023-11-27T02:17:06.215Z,100023.50
2023-11-27T02:17:40.150Z,100019.13
2023-11-27T02:18:13.974Z,100018.28
2023-11-27T02:18:47.512Z,100021.72
2023-11-27T02:19:20.905Z,100020.00
2023-11-27T02:19:54.512Z,100025.19
2023-11-27T02:20:27.917Z,100020.88
2023-11-27T02:21:03.281Z,100020.03
2023-11-27T02:21:36.567Z,100021.75
2023-11-27T02:22:10.132Z,100018.28
2023-11-27T02:22:43.430Z,100021.72
2023-11-27T02:23:18.954Z,100019.09
2023-11-27T02:23:53.629Z,100023.44
2023-11-27T02:24:27.240Z,100014.75
2023-11-27T02:25:03.847Z,100019.97
2023-11-27T02:25:37.761Z,100013.00
2023-11-27T02:26:11.749Z,100015.63
2023-11-27T02:26:45.796Z,100002.66
2023-11-27T02:27:19.842Z,100012.16
2023-11-27T02:27:53.513Z,100012.16
2023-11-27T02:28:26.921Z,100002.66
2023-11-27T02:29:00.408Z,100005.22
2023-11-27T02:29:34.134Z,99999.19
2023-11-27T02:30:09.231Z,100006.09
2023-11-27T02:30:42.757Z,100013.88
2023-11-27T02:31:17.422Z,100006.06
2023-11-27T02:31:51.036Z,100003.44
2023-11-27T02:32:25.317Z,100002.56
2023-11-27T02:33:00.523Z,100006.03
2023-11-27T02:33:35.153Z,100001.69
2023-11-27T02:34:08.602Z,100002.59
2023-11-27T02:34:47.865Z,99999.13
2023-11-27T02:35:21.414Z,100004.31
2023-11-27T02:35:55.169Z,100006.91
2023-11-27T02:36:37.874Z,100000.81
2023-11-27T02:37:12.329Z,100002.53
2023-11-27T02:37:46.586Z,100000.78
2023-11-27T02:38:20.324Z,99998.22
2023-11-27T02:38:54.748Z,99993.88
2023-11-27T02:39:29.710Z,99995.59
2023-11-27T02:40:06.463Z,99993.88
2023-11-27T02:40:39.931Z,99999.06
2023-11-27T02:41:14.042Z,99999.06
2023-11-27T02:41:47.364Z,100000.78
2023-11-27T02:42:21.028Z,99997.31
2023-11-27T02:42:54.365Z,100004.22
2023-11-27T02:43:27.951Z,99999.88
2023-11-27T02:44:01.169Z,100001.56
2023-11-27T02:44:34.491Z,99998.97
2023-11-27T02:45:08.828Z,99999.81
2023-11-27T02:45:42.501Z,99998.94
2023-11-27T02:46:17.009Z,100002.41
2023-11-27T02:46:50.837Z,99995.47
2023-11-27T02:47:24.487Z,99995.47
2023-11-27T02:47:57.871Z,100002.38
2023-11-27T02:48:31.723Z,100001.47
2023-11-27T02:49:06.527Z,99992.81
2023-11-27T02:49:40.154Z,99996.28
2023-11-27T02:50:14.963Z,99991.91
2023-11-27T02:50:51.859Z,99995.38
2023-11-27T02:51:25.490Z,99997.97
2023-11-27T02:51:59.048Z,99986.69
2023-11-27T02:52:35.722Z,99989.28
2023-11-27T02:53:13.625Z,99986.63
2023-11-27T02:53:47.025Z,99993.56
2023-11-27T02:54:20.804Z,99989.22
2023-11-27T02:54:57.300Z,99984.84
2023-11-27T02:55:30.922Z,99989.16
2023-11-27T02:56:05.019Z,99990.88
2023-11-27T02:56:38.670Z,99988.25
2023-11-27T02:57:14.281Z,99977.84
2023-11-27T02:57:49.347Z,99984.75
2023-11-27T02:58:22.925Z,99983.03
2023-11-27T02:58:56.264Z,99981.28
2023-11-27T02:59:30.465Z,99980.41
2023-11-27T03:00:06.863Z,99983.03
2023-11-27T03:00:41.120Z,99976.94
2023-11-27T03:01:15.750Z,99978.66
2023-11-27T03:01:54.014Z,99981.25
2023-11-27T03:02:28.856Z,99978.63
2023-11-27T03:03:03.888Z,99976.00
2023-11-27T03:03:39.109Z,99983.78
2023-11-27T03:04:15.496Z,99975.94
2023-11-27T03:04:49.110Z,99980.25
2023-11-27T03:05:22.654Z,99974.19
2023-11-27T03:05:56.270Z,99977.63
2023-11-27T03:06:29.928Z,99974.13
2023-11-27T03:07:03.508Z,99972.41
2023-11-27T03:07:38.293Z,99971.53
2023-11-27T03:08:12.300Z,99972.41
2023-11-27T03:08:45.693Z,99969.81
2023-11-27T03:09:19.576Z,99970.66
2023-11-27T03:09:53.069Z,99974.09
2023-11-27T03:10:27.590Z,99973.25
2023-11-27T03:11:01.085Z,99977.59
2023-11-27T03:11:34.557Z,99978.41
2023-11-27T03:12:09.258Z,99973.16
2023-11-27T03:12:44.733Z,99974.00
2023-11-27T03:13:18.407Z,99967.94
2023-11-27T03:13:51.880Z,99978.34
2023-11-27T03:14:25.513Z,99984.38
2023-11-27T03:14:59.465Z,99981.78
2023-11-27T03:15:35.944Z,99975.72
2023-11-27T03:16:09.620Z,99977.50
2023-11-27T03:16:45.632Z,99985.25
2023-11-27T03:17:19.096Z,99979.19
2023-11-27T03:17:53.299Z,99980.00
2023-11-27T03:18:27.124Z,99979.09
2023-11-27T03:19:00.950Z,99968.69
2023-11-27T03:19:47.118Z,99975.66
2023-11-27T03:20:22.075Z,99972.13
2023-11-27T03:20:55.596Z,99971.28
2023-11-27T03:21:31.918Z,99963.47
2023-11-27T03:22:05.701Z,99967.84
2023-11-27T03:22:40.377Z,99968.72
2023-11-27T03:23:14.376Z,99962.63
2023-11-27T03:23:48.248Z,99958.31
2023-11-27T03:24:22.143Z,99970.50
2023-11-27T03:24:55.826Z,99962.66
2023-11-27T03:25:29.140Z,99960.06
2023-11-27T03:26:05.166Z,99958.28
2023-11-27T03:26:38.784Z,99964.38
2023-11-27T03:27:13.214Z,99963.47
2023-11-27T03:27:46.845Z,99963.50
2023-11-27T03:28:22.793Z,99963.47
2023-11-27T03:28:56.334Z,99956.59
2023-11-27T03:29:30.762Z,99958.31
2023-11-27T03:30:06.016Z,99957.53
2023-11-27T03:30:40.041Z,99962.69
2023-11-27T03:31:13.809Z,99964.47
2023-11-27T03:31:49.418Z,99958.41
2023-11-27T03:32:22.849Z,99954.88
2023-11-27T03:32:56.325Z,99957.53
2023-11-27T03:33:29.929Z,99957.59
2023-11-27T03:34:04.061Z,99951.56
2023-11-27T03:34:37.623Z,99955.84
2023-11-27T03:35:12.064Z,99952.34
2023-11-27T03:35:46.835Z,99955.78
2023-11-27T03:36:24.509Z,99949.75
2023-11-27T03:36:58.101Z,99957.66
2023-11-27T03:37:31.904Z,99960.19
2023-11-27T03:38:08.176Z,99949.78
2023-11-27T03:38:41.549Z,99960.19
2023-11-27T03:39:15.141Z,99961.91
2023-11-27T03:39:48.769Z,99953.28
2023-11-27T03:40:22.106Z,99957.59
2023-11-27T03:40:58.684Z,99948.06
2023-11-27T03:41:33.585Z,99953.25
2023-11-27T03:42:10.033Z,99955.84
2023-11-27T03:42:43.391Z,99951.50
2023-11-27T03:43:17.959Z,99945.44
2023-11-27T03:43:54.737Z,99944.56
2023-11-27T03:44:28.364Z,99946.34
2023-11-27T03:45:02.536Z,99939.38
2023-11-27T03:45:36.187Z,99939.44
2023-11-27T03:46:10.426Z,99944.63
2023-11-27T03:46:43.874Z,99942.88
2023-11-27T03:47:17.258Z,99942.94
2023-11-27T03:47:50.776Z,99939.41
2023-11-27T03:48:24.071Z,99936.84
2023-11-27T03:48:57.737Z,99939.44
2023-11-27T03:49:32.643Z,99940.34
2023-11-27T03:50:07.471Z,99937.69
2023-11-27T03:50:40.743Z,99932.53
2023-11-27T03:51:14.227Z,99934.25
2023-11-27T03:51:47.772Z,99929.03
2023-11-27T03:52:23.713Z,99932.53
2023-11-27T03:52:57.042Z,99929.94
2023-11-27T03:53:31.421Z,99923.03
2023-11-27T03:54:06.797Z,99918.72
2023-11-27T03:54:40.438Z,99927.38
2023-11-27T03:55:14.722Z,99923.91
2023-11-27T03:55:48.126Z,99923.94
2023-11-27T03:56:21.705Z,99921.34
2023-11-27T03:56:55.205Z,99921.34
2023-11-27T03:57:28.744Z,99918.72
2023-11-27T03:58:02.303Z,99929.13
2023-11-27T03:58:35.931Z,99927.41
2023-11-27T03:59:09.404Z,99923.94
2023-11-27T03:59:43.187Z,99916.19
2023-11-27T04:00:18.252Z,99920.47
2023-11-27T04:00:52.225Z,99917.00
2023-11-27T04:01:25.932Z,99920.44
2023-11-27T04:02:00.564Z,99919.56
2023-11-27T04:02:34.461Z,99916.97
2023-11-27T04:03:08.010Z,99923.03
2023-11-27T04:03:42.172Z,99924.72
2023-11-27T04:04:16.602Z,99922.16
2023-11-27T04:04:50.157Z,99919.56
2023-11-27T04:05:24.232Z,99918.72
2023-11-27T04:05:57.890Z,99911.72
2023-11-27T04:06:33.126Z,99921.28
2023-11-27T04:07:07.643Z,99918.66
2023-11-27T04:07:41.566Z,99919.56
2023-11-27T04:08:15.199Z,99916.16
2023-11-27T04:08:48.678Z,99924.81
2023-11-27T04:09:23.005Z,99920.50
2023-11-27T04:09:56.538Z,99918.75
2023-11-27T04:10:30.154Z,99923.94
2023-11-27T04:11:03.926Z,99914.38
2023-11-27T04:11:37.974Z,99913.53
2023-11-27T04:12:12.131Z,99913.53
2023-11-27T04:12:46.838Z,99916.97
2023-11-27T04:13:22.049Z,99908.28
2023-11-27T04:13:56.295Z,99908.28
2023-11-27T04:14:29.767Z,99912.63
2023-11-27T04:15:05.490Z,99915.22
2023-11-27T04:15:42.458Z,99914.41
2023-11-27T04:16:17.533Z,99912.66
2023-11-27T04:16:51.245Z,99910.06
2023-11-27T04:17:24.648Z,99916.19
2023-11-27T04:17:58.443Z,99915.31
2023-11-27T04:18:32.350Z,99916.16
2023-11-27T04:19:06.177Z,99913.63
2023-11-27T04:19:40.534Z,99909.28
2023-11-27T04:20:15.883Z,99915.34
2023-11-27T04:20:49.634Z,99911.84
2023-11-27T04:21:23.464Z,99913.53
2023-11-27T04:21:57.064Z,99914.47
2023-11-27T04:22:30.673Z,99913.59
2023-11-27T04:23:04.241Z,99912.69
2023-11-27T04:23:37.742Z,99913.59
2023-11-27T04:24:12.027Z,99911.84
2023-11-27T04:24:45.898Z,99911.84
2023-11-27T04:25:20.031Z,99904.84
2023-11-27T04:25:53.658Z,99901.50
2023-11-27T04:26:28.378Z,99899.75
2023-11-27T04:27:01.732Z,99903.22
2023-11-27T04:27:35.557Z,99898.00
2023-11-27T04:28:09.150Z,99897.09
2023-11-27T04:28:44.400Z,99899.72
2023-11-27T04:29:17.788Z,99891.03
2023-11-27T04:29:53.588Z,99891.09
2023-11-27T04:30:29.016Z,99887.59
2023-11-27T04:31:02.281Z,99885.84
2023-11-27T04:31:37.415Z,99877.19
2023-11-27T04:32:11.965Z,99877.19
2023-11-27T04:32:46.494Z,99873.69
2023-11-27T04:33:20.298Z,99878.00
2023-11-27T04:33:53.630Z,99877.13
2023-11-27T04:34:27.124Z,99874.53
2023-11-27T04:35:00.419Z,99884.94
2023-11-27T04:35:33.750Z,99878.84
2023-11-27T04:36:08.085Z,99880.59
2023-11-27T04:36:41.347Z,99885.81
2023-11-27T04:37:16.256Z,99893.59
2023-11-27T04:37:49.722Z,99891.84
2023-11-27T04:38:24.634Z,99892.72
2023-11-27T04:38:58.228Z,99901.34
2023-11-27T04:39:31.494Z,99897.00
2023-11-27T04:40:05.480Z,99897.88
2023-11-27T04:40:42.005Z,99889.22
2023-11-27T04:41:16.811Z,99895.28
2023-11-27T04:41:50.050Z,99891.78
2023-11-27T04:42:26.615Z,99892.69
2023-11-27T04:42:59.922Z,99893.53
2023-11-27T04:43:33.197Z,99890.09
2023-11-27T04:44:07.858Z,99898.78
2023-11-27T04:44:41.500Z,99892.72
2023-11-27T04:45:15.040Z,99894.44
2023-11-27T04:45:49.683Z,99896.19
2023-11-27T04:46:25.888Z,99892.63
2023-11-27T04:46:59.576Z,99884.00
2023-11-27T04:47:33.349Z,99891.00
2023-11-27T04:48:06.955Z,99884.00
2023-11-27T04:48:40.482Z,99885.72
2023-11-27T04:49:14.339Z,99889.22
2023-11-27T04:49:47.805Z,99884.00
2023-11-27T04:50:22.544Z,99884.91
2023-11-27T04:50:55.790Z,99884.00
2023-11-27T04:51:30.868Z,99889.22
2023-11-27T04:52:05.047Z,99884.00
2023-11-27T04:52:38.729Z,99885.69
2023-11-27T04:53:12.198Z,99886.59
2023-11-27T04:53:45.625Z,99890.91
2023-11-27T04:54:19.280Z,99892.69
2023-11-27T04:54:52.653Z,99890.03
2023-11-27T04:55:26.093Z,99892.72
2023-11-27T04:56:00.696Z,99896.16
2023-11-27T04:56:34.200Z,99900.50
2023-11-27T04:57:07.543Z,99893.53
2023-11-27T04:57:41.072Z,99899.59
2023-11-27T04:58:14.436Z,99894.41
2023-11-27T04:58:47.791Z,99891.78
2023-11-27T04:59:21.305Z,99896.13
2023-11-27T04:59:54.875Z,99895.34
2023-11-27T05:00:28.485Z,99895.38
2023-11-27T05:01:04.916Z,99896.28
2023-11-27T05:01:38.604Z,99891.00
2023-11-27T05:02:13.597Z,99896.19
2023-11-27T05:02:47.127Z,99889.25
2023-11-27T05:03:21.625Z,99891.00
2023-11-27T05:03:57.063Z,99885.78
2023-11-27T05:04:31.253Z,99891.00
2023-11-27T05:05:04.814Z,99892.72
2023-11-27T05:05:38.459Z,99892.72
2023-11-27T05:06:16.545Z,99898.81
2023-11-27T05:06:51.014Z,99895.31
2023-11-27T05:07:27.629Z,99894.41
2023-11-27T05:08:01.269Z,99901.31
2023-11-27T05:08:34.854Z,99888.34
2023-11-27T05:09:08.826Z,99897.84
2023-11-27T05:09:42.765Z,99892.63
2023-11-27T05:10:19.230Z,99889.16
2023-11-27T05:10:55.281Z,99896.06
2023-11-27T05:11:31.973Z,99896.94
2023-11-27T05:12:05.972Z,99890.91
2023-11-27T05:12:39.512Z,99895.22
2023-11-27T05:13:14.318Z,99894.31
2023-11-27T05:13:51.258Z,99883.91
2023-11-27T05:14:24.904Z,99892.59
2023-11-27T05:14:58.887Z,99901.25
2023-11-27T05:15:32.653Z,99891.75
2023-11-27T05:16:07.234Z,99889.16
2023-11-27T05:16:40.892Z,99895.19
2023-11-27T05:17:14.524Z,99891.69
2023-11-27T05:17:49.015Z,99890.81
2023-11-27T05:18:25.661Z,99891.69
2023-11-27T05:18:59.080Z,99889.09
2023-11-27T05:19:32.683Z,99894.31
2023-11-27T05:20:09.721Z,99888.22
2023-11-27T05:20:44.668Z,99892.59
2023-11-27T05:21:18.238Z,99894.31
2023-11-27T05:21:52.327Z,99895.16
2023-11-27T05:22:27.210Z,99903.00
2023-11-27T05:23:03.780Z,99898.63
2023-11-27T05:23:43.056Z,99901.25
2023-11-27T05:24:17.490Z,99902.94
2023-11-27T05:24:51.148Z,99899.50
2023-11-27T05:25:24.821Z,99909.84
2023-11-27T05:25:58.882Z,99907.25
2023-11-27T05:26:32.380Z,99908.13
2023-11-27T05:27:05.809Z,99909.00
2023-11-27T05:27:40.244Z,99908.13
2023-11-27T05:28:14.410Z,99908.97
2023-11-27T05:28:47.938Z,99908.97
2023-11-27T05:29:24.034Z,99902.88
2023-11-27T05:29:57.763Z,99907.25
2023-11-27T05:30:31.099Z,99909.84
2023-11-27T05:31:06.759Z,99909.84
2023-11-27T05:31:43.254Z,99910.69
2023-11-27T05:32:18.220Z,99908.94
2023-11-27T05:32:53.402Z,99916.72
2023-11-27T05:33:29.299Z,99911.53
2023-11-27T05:34:03.632Z,99911.53
2023-11-27T05:34:37.712Z,99913.28
2023-11-27T05:35:11.032Z,99909.81
2023-11-27T05:35:46.963Z,99908.09
2023-11-27T05:36:20.337Z,99911.56
2023-11-27T05:36:53.910Z,99906.34
2023-11-27T05:37:28.337Z,99902.88
2023-11-27T05:38:02.010Z,99906.31
2023-11-27T05:38:36.454Z,99908.03
2023-11-27T05:39:12.476Z,99899.41
2023-11-27T05:39:46.052Z,99899.41
2023-11-27T05:40:19.682Z,99898.50
2023-11-27T05:40:53.239Z,99902.00
2023-11-27T05:41:26.506Z,99905.41
2023-11-27T05:42:01.140Z,99905.44
2023-11-27T05:42:41.177Z,99909.75
2023-11-27T05:43:16.324Z,99911.44
2023-11-27T05:43:50.374Z,99902.78
2023-11-27T05:44:23.985Z,99908.00
2023-11-27T05:45:00.994Z,99908.00
2023-11-27T05:45:35.843Z,99904.50
2023-11-27T05:46:12.060Z,99907.94
2023-11-27T05:46:46.416Z,99900.16
2023-11-27T05:47:20.050Z,99909.69
2023-11-27T05:47:53.617Z,99894.88
2023-11-27T05:48:29.520Z,99900.06
2023-11-27T05:49:03.163Z,99904.41
2023-11-27T05:49:36.868Z,99895.78
2023-11-27T05:50:13.535Z,99892.25
2023-11-27T05:50:47.616Z,99904.38
2023-11-27T05:51:21.178Z,99894.00
2023-11-27T05:51:56.791Z,99895.72
2023-11-27T05:52:31.551Z,99891.38
2023-11-27T05:53:05.049Z,99895.69
2023-11-27T05:53:38.578Z,99894.81
2023-11-27T05:54:12.479Z,99899.13
2023-11-27T05:54:46.012Z,99900.88
2023-11-27T05:55:20.049Z,99902.59
2023-11-27T05:55:53.305Z,99899.09
2023-11-27T05:56:26.752Z,99893.91
2023-11-27T05:57:00.274Z,99897.38
2023-11-27T05:57:35.649Z,99891.25
2023-11-27T05:58:09.430Z,99891.25
2023-11-27T05:58:42.793Z,99898.25
2023-11-27T05:59:16.199Z,99906.00
2023-11-27T05:59:54.837Z,99897.25
2023-11-27T06:00:28.252Z,99896.38
2023-11-27T06:01:01.902Z,99897.22
2023-11-27T06:01:35.626Z,99898.09
2023-11-27T06:02:13.962Z,99897.22
2023-11-27T06:02:47.781Z,99896.34
2023-11-27T06:03:23.860Z,99896.34
2023-11-27T06:03:57.322Z,99897.25
2023-11-27T06:04:30.711Z,99894.66
2023-11-27T06:05:04.455Z,99895.53
2023-11-27T06:05:38.466Z,99892.06
2023-11-27T06:06:14.700Z,99890.28
2023-11-27T06:06:48.839Z,99892.88
2023-11-27T06:07:22.138Z,99898.03
2023-11-27T06:07:55.652Z,99898.84
2023-11-27T06:08:29.193Z,99888.47
2023-11-27T06:09:02.496Z,99897.16
2023-11-27T06:09:36.485Z,99900.63
2023-11-27T06:10:10.796Z,99901.50
2023-11-27T06:10:44.724Z,99896.28
2023-11-27T06:11:18.811Z,99907.53
2023-11-27T06:11:52.468Z,99897.09
2023-11-27T06:12:26.814Z,99907.47
2023-11-27T06:13:00.306Z,99905.72
2023-11-27T06:13:37.007Z,99899.66
2023-11-27T06:14:10.406Z,99900.50
2023-11-27T06:14:44.581Z,99908.28
2023-11-27T06:15:18.604Z,99910.00
2023-11-27T06:15:52.258Z,99902.19
2023-11-27T06:16:26.766Z,99905.66
2023-11-27T06:17:00.625Z,99905.66
2023-11-27T06:17:34.411Z,99903.97
2023-11-27T06:18:08.081Z,99903.97
2023-11-27T06:18:41.920Z,99903.13
2023-11-27T06:19:15.579Z,99899.66
2023-11-27T06:19:49.364Z,99908.31
2023-11-27T06:20:22.899Z,99904.91
2023-11-27T06:20:57.168Z,99907.53
2023-11-27T06:21:31.162Z,99900.53
2023-11-27T06:22:05.473Z,99902.25
2023-11-27T06:22:39.516Z,99904.84
2023-11-27T06:23:14.044Z,99903.09
2023-11-27T06:23:47.634Z,99910.97
2023-11-27T06:24:21.176Z,99903.22
2023-11-27T06:24:57.683Z,99910.22
2023-11-27T06:25:31.737Z,99914.56
2023-11-27T06:26:05.811Z,99912.78
2023-11-27T06:26:39.333Z,99911.09
2023-11-27T06:27:13.618Z,99918.91
2023-11-27T06:27:47.152Z,99921.53
2023-11-27T06:28:21.672Z,99921.53
2023-11-27T06:28:55.313Z,99918.94
2023-11-27T06:29:28.879Z,99918.91
2023-11-27T06:30:02.269Z,99923.28
2023-11-27T06:30:35.828Z,99922.38
2023-11-27T06:31:09.588Z,99921.53
2023-11-27T06:31:43.511Z,99919.78
2023-11-27T06:32:22.470Z,99916.28
2023-11-27T06:32:56.892Z,99917.16
2023-11-27T06:33:30.615Z,99922.34
2023-11-27T06:34:04.676Z,99930.19
2023-11-27T06:34:38.092Z,99921.50
2023-11-27T06:35:14.396Z,99931.94
2023-11-27T06:35:50.200Z,99916.38
2023-11-27T06:36:24.001Z,99918.91
2023-11-27T06:37:00.106Z,99921.53
2023-11-27T06:37:33.780Z,99918.91
2023-11-27T06:38:07.253Z,99913.72
2023-11-27T06:38:40.729Z,99911.06
2023-11-27T06:39:14.627Z,99911.00
2023-11-27T06:39:48.633Z,99900.53
2023-11-27T06:40:33.988Z,99908.31